createdAt,value
2022-12-05T00:02:16.513Z,71.70
2022-12-05T00:07:19.064Z,71.51
2022-12-05T00:12:21.701Z,71.93
2022-12-05T00:17:24.234Z,71.96
2022-12-05T00:22:27.716Z,71.49
2022-12-05T00:27:30.226Z,71.59
2022-12-05T00:32:33.174Z,71.18
2022-12-05T00:37:36.504Z,71.27
2022-12-05T00:42:39.164Z,71.67
2022-12-05T00:47:41.744Z,71.80
2022-12-05T00:52:44.283Z,71.95
2022-12-05T00:57:46.879Z,71.73
2022-12-05T01:02:49.488Z,71.91
2022-12-05T01:07:52.174Z,71.68
2022-12-05T01:12:54.831Z,72.17
2022-12-05T01:17:57.438Z,71.84
2022-12-05T01:22:59.993Z,71.86
2022-12-05T01:28:22.703Z,71.83
2022-12-05T01:33:25.254Z,71.56
2022-12-05T01:38:28.627Z,72.16
2022-12-05T01:43:31.508Z,72.22
2022-12-05T01:48:36.161Z,71.99
2022-12-05T01:53:38.861Z,72.19
2022-12-05T01:58:43.467Z,72.23
2022-12-05T02:03:48.850Z,71.62
2022-12-05T02:08:53.067Z,72.16
2022-12-05T02:14:24.619Z,71.82
2022-12-05T02:19:29.952Z,71.95
2022-12-05T02:24:38.147Z,72.21
2022-12-05T02:30:01.571Z,71.43
2022-12-05T02:35:16.118Z,71.52
2022-12-05T02:40:31.790Z,71.97
2022-12-05T02:45:38.546Z,72.10
2022-12-05T02:50:43.350Z,72.36
2022-12-05T02:55:46.631Z,72.09
2022-12-05T03:00:53.297Z,72.42
2022-12-05T03:06:27.380Z,72.16
2022-12-05T03:11:36.979Z,72.16
2022-12-05T03:16:49.117Z,72.27
2022-12-05T03:22:07.794Z,72.10
2022-12-05T03:27:27.534Z,72.11
2022-12-05T03:32:45.751Z,72.32
2022-12-05T03:38:08.476Z,72.13
2022-12-05T03:43:37.016Z,72.46
2022-12-05T03:48:55.334Z,72.44
2022-12-05T03:54:06.934Z,72.21
2022-12-05T03:59:27.458Z,71.61
2022-12-05T04:04:35.939Z,72.15
2022-12-05T04:09:45.939Z,72.13
2022-12-05T04:14:53.129Z,71.38
2022-12-05T04:20:21.010Z,71.67
2022-12-05T04:25:35.554Z,71.54
2022-12-05T04:30:47.426Z,71.73
2022-12-05T04:36:01.085Z,71.93
2022-12-05T04:41:09.082Z,72.15
2022-12-05T04:46:15.035Z,72.28
2022-12-05T04:51:22.764Z,72.17
2022-12-05T04:56:29.340Z,72.19
2022-12-05T05:01:40.117Z,71.77
2022-12-05T05:06:43.246Z,72.29
2022-12-05T05:11:45.955Z,72.47
2022-12-05T05:16:48.671Z,71.64
2022-12-05T05:21:52.138Z,72.43
2022-12-05T05:27:08.795Z,72.45
2022-12-05T05:32:21.112Z,72.04
2022-12-05T05:37:23.698Z,72.75
2022-12-05T05:42:26.243Z,72.50
2022-12-05T05:47:28.775Z,71.87
2022-12-05T05:52:33.804Z,71.91
2022-12-05T05:57:36.577Z,72.04
2022-12-05T06:02:39.963Z,71.59
2022-12-05T06:07:42.666Z,71.48
2022-12-05T06:12:45.871Z,71.38
2022-12-05T06:17:48.449Z,71.15
2022-12-05T06:22:51.052Z,70.86
2022-12-05T06:27:53.587Z,71.11
2022-12-05T06:32:56.174Z,70.41
2022-12-05T06:37:58.724Z,69.70
2022-12-05T06:43:01.608Z,70.26
2022-12-05T06:48:04.345Z,70.01
2022-12-05T06:53:07.449Z,69.87
2022-12-05T06:58:10.023Z,69.34
2022-12-05T07:03:13.367Z,68.54
2022-12-05T07:08:15.908Z,68.79
2022-12-05T07:13:19.008Z,68.63
2022-12-05T07:18:21.602Z,68.64
2022-12-05T07:23:24.175Z,67.87
2022-12-05T07:28:26.732Z,67.49
2022-12-05T07:33:29.751Z,67.49
2022-12-05T07:38:32.730Z,66.75
2022-12-05T07:43:35.454Z,66.18
2022-12-05T07:48:38.928Z,65.85
2022-12-05T07:53:43.832Z,65.08
2022-12-05T07:58:48.709Z,65.51
2022-12-05T08:03:55.594Z,65.09
2022-12-05T08:08:58.658Z,64.83
2022-12-05T08:14:01.175Z,64.18
2022-12-05T08:19:08.527Z,64.06
2022-12-05T08:24:11.515Z,63.38
2022-12-05T08:29:15.538Z,63.20
2022-12-05T08:34:20.101Z,62.98
2022-12-05T08:39:22.692Z,62.40
2022-12-05T08:44:25.507Z,62.33
2022-12-05T08:49:28.441Z,62.28
2022-12-05T08:54:31.065Z,61.57
2022-12-05T08:59:33.651Z,61.10
2022-12-05T09:04:36.949Z,61.35
2022-12-05T09:09:39.506Z,61.30
2022-12-05T09:14:42.102Z,60.63
2022-12-05T09:19:45.324Z,59.85
2022-12-05T09:24:47.980Z,60.29
2022-12-05T09:29:50.567Z,59.46
2022-12-05T09:34:53.182Z,59.56
2022-12-05T09:39:55.774Z,59.60
2022-12-05T09:45:17.552Z,59.36
2022-12-05T09:50:31.600Z,58.85
2022-12-05T09:55:42.484Z,59.03
2022-12-05T10:00:45.734Z,58.60
2022-12-05T10:06:09.788Z,58.88
2022-12-05T10:11:26.531Z,58.76
2022-12-05T10:16:42.839Z,58.56
2022-12-05T10:21:59.198Z,58.83
2022-12-05T10:27:07.202Z,58.74
2022-12-05T10:32:20.068Z,58.32
2022-12-05T10:37:24.299Z,58.07
2022-12-05T10:42:31.811Z,58.60
2022-12-05T10:47:35.795Z,58.24
2022-12-05T10:52:38.445Z,58.01
2022-12-05T10:57:40.957Z,57.93
2022-12-05T11:02:44.066Z,58.24
2022-12-05T11:07:48.617Z,58.30
2022-12-05T11:12:51.868Z,57.82
2022-12-05T11:17:56.249Z,57.94
2022-12-05T11:22:59.576Z,58.22
2022-12-05T11:28:30.748Z,57.77
2022-12-05T11:33:35.559Z,57.61
2022-12-05T11:38:39.874Z,57.76
2022-12-05T11:44:08.590Z,57.68
2022-12-05T11:49:29.154Z,57.69
2022-12-05T12:00:43.921Z,57.72
2022-12-05T12:06:10.264Z,58.11
2022-12-05T12:11:32.583Z,58.51
2022-12-05T12:16:58.386Z,58.52
2022-12-05T12:22:19.309Z,58.24
2022-12-05T12:27:34.018Z,58.49
2022-12-05T12:33:03.247Z,58.84
2022-12-05T12:38:45.747Z,59.30
2022-12-05T12:44:11.430Z,59.38
2022-12-05T12:49:30.257Z,59.97
2022-12-05T12:55:05.172Z,59.94
2022-12-05T13:00:28.284Z,60.24
2022-12-05T13:05:41.765Z,60.64
2022-12-05T13:10:46.406Z,60.50
2022-12-05T13:15:56.625Z,60.55
2022-12-05T13:21:03.391Z,61.20
2022-12-05T13:26:11.595Z,61.38
2022-12-05T13:31:17.112Z,61.20
2022-12-05T13:36:41.060Z,61.85
2022-12-05T13:42:06.344Z,62.24
2022-12-05T13:47:51.601Z,62.41
2022-12-05T13:52:59.483Z,62.76
2022-12-05T13:58:23.503Z,62.78
2022-12-05T14:03:35.195Z,62.84
2022-12-05T14:08:52.598Z,62.81
2022-12-05T14:13:59.136Z,62.14
2022-12-05T14:19:34.202Z,63.33
2022-12-05T14:24:52.560Z,63.90
2022-12-05T14:30:24.392Z,63.52
2022-12-05T14:35:46.984Z,63.67
2022-12-05T14:40:49.689Z,64.27
2022-12-05T14:45:52.756Z,63.62
2022-12-05T14:50:57.191Z,63.54
2022-12-05T14:56:00.253Z,64.03
2022-12-05T15:01:09.377Z,64.00
2022-12-05T15:06:16.095Z,64.12
2022-12-05T15:11:31.157Z,64.41
2022-12-05T15:16:37.356Z,64.62
2022-12-05T15:21:49.216Z,64.72
2022-12-05T15:26:58.594Z,64.70
2022-12-05T15:32:15.801Z,65.22
2022-12-05T15:37:53.894Z,65.30
2022-12-05T15:42:57.634Z,65.02
2022-12-05T15:48:00.072Z,64.73
2022-12-05T15:53:22.428Z,64.50
2022-12-05T15:58:32.160Z,64.57
2022-12-05T16:03:53.379Z,64.60
2022-12-05T16:08:57.963Z,64.66
2022-12-05T16:14:04.895Z,64.98
2022-12-05T16:19:18.325Z,64.97
2022-12-05T16:24:26.987Z,65.29
2022-12-05T16:29:33.061Z,65.07
2022-12-05T16:34:35.632Z,65.35
2022-12-05T16:39:39.026Z,65.27
2022-12-05T16:44:47.560Z,65.55
2022-12-05T16:49:50.041Z,65.28
2022-12-05T16:54:52.872Z,65.32
2022-12-05T16:59:57.253Z,65.69
2022-12-05T17:05:06.882Z,64.97
2022-12-05T17:10:09.876Z,65.92
2022-12-05T17:15:20.131Z,65.34
2022-12-05T17:20:22.802Z,65.61
2022-12-05T17:25:36.445Z,65.40
2022-12-05T17:30:39.991Z,65.26
2022-12-05T17:35:43.471Z,64.97
2022-12-05T17:40:46.931Z,65.09
2022-12-05T17:45:49.609Z,65.93
2022-12-05T17:50:53.139Z,65.39
2022-12-05T17:55:55.658Z,64.83
2022-12-05T18:00:58.520Z,64.95
2022-12-05T18:06:03.838Z,64.78
2022-12-05T18:11:07.107Z,64.99
2022-12-05T18:16:09.876Z,64.53
2022-12-05T18:21:13.792Z,65.14
2022-12-05T18:26:16.389Z,65.27
2022-12-05T18:31:19.693Z,64.95
2022-12-05T18:36:23.650Z,65.15
2022-12-05T18:41:29.186Z,65.03
2022-12-05T18:46:31.905Z,65.24
2022-12-05T18:51:34.707Z,65.28
2022-12-05T18:56:39.688Z,65.50
2022-12-05T19:01:42.493Z,65.64
2022-12-05T19:06:57.746Z,65.34
2022-12-05T19:12:00.895Z,65.62
2022-12-05T19:17:04.265Z,65.69
2022-12-05T19:22:06.804Z,66.24
2022-12-05T19:27:09.323Z,65.93
2022-12-05T19:32:11.959Z,65.67
2022-12-05T19:37:15.172Z,66.01
2022-12-05T19:42:17.724Z,66.02
2022-12-05T19:47:20.327Z,66.17
2022-12-05T19:52:22.877Z,65.74
2022-12-05T19:57:30.929Z,65.83
2022-12-05T20:02:38.380Z,66.60
2022-12-05T20:07:42.745Z,66.44
2022-12-05T20:12:45.297Z,66.55
2022-12-05T20:17:52.970Z,66.26
2022-12-05T20:22:56.566Z,66.30
2022-12-05T20:27:59.004Z,67.05
2022-12-05T20:33:02.150Z,66.33
2022-12-05T20:38:04.844Z,66.36
2022-12-05T20:43:07.350Z,66.51
2022-12-05T20:48:09.912Z,66.58
2022-12-05T20:53:15.418Z,66.71
2022-12-05T20:58:17.971Z,66.94
2022-12-05T21:03:20.528Z,67.07
2022-12-05T21:08:23.335Z,66.79
2022-12-05T21:13:25.956Z,67.17
2022-12-05T21:18:29.251Z,66.71
2022-12-05T21:23:32.117Z,66.68
2022-12-05T21:28:35.477Z,65.69
2022-12-05T21:33:40.002Z,66.59
2022-12-05T21:38:43.131Z,66.65
2022-12-05T21:43:51.012Z,66.27
2022-12-05T21:48:56.515Z,66.60
2022-12-05T21:53:59.038Z,66.37
2022-12-05T21:59:01.591Z,66.54
2022-12-05T22:04:04.210Z,66.63
2022-12-05T22:09:07.147Z,66.77
2022-12-05T22:14:09.876Z,66.42
2022-12-05T22:19:12.778Z,66.48
2022-12-05T22:24:15.688Z,66.47
2022-12-05T22:29:18.299Z,66.16
2022-12-05T22:34:21.534Z,65.75
2022-12-05T22:39:24.800Z,65.61
2022-12-05T22:44:27.526Z,65.70
2022-12-05T22:49:30.084Z,65.63
2022-12-05T22:54:32.562Z,65.58
2022-12-05T22:59:35.187Z,65.99
2022-12-05T23:04:37.735Z,65.91
2022-12-05T23:09:40.250Z,65.81
2022-12-05T23:14:42.823Z,65.62
2022-12-05T23:19:45.391Z,65.36
2022-12-05T23:24:47.941Z,65.21
2022-12-05T23:29:50.608Z,65.41
2022-12-05T23:34:53.600Z,65.73
2022-12-05T23:39:56.377Z,66.07
2022-12-05T23:44:59.070Z,65.61
2022-12-05T23:50:01.951Z,65.59
2022-12-05T23:55:06.822Z,65.60
